sensor_id;sensor_type;location;lat;lon;timestamp;pressure;altitude;pressure_sealevel;temperature
16956;BMP180;8594;52.052;8.354;2023-12-29T00:00:02;99802.00;;;12.60
16956;BMP180;8594;52.052;8.354;2023-12-29T00:02:29;99798.00;;;12.90
16956;BMP180;8594;52.052;8.354;2023-12-29T00:04:55;99800.00;;;12.90
16956;BMP180;8594;52.052;8.354;2023-12-29T00:07:22;99805.00;;;13.10
16956;BMP180;8594;52.052;8.354;2023-12-29T00:09:49;99793.00;;;12.90
16956;BMP180;8594;52.052;8.354;2023-12-29T00:12:17;99801.00;;;13.00
16956;BMP180;8594;52.052;8.354;2023-12-29T00:14:44;99802.00;;;13.00
16956;BMP180;8594;52.052;8.354;2023-12-29T00:17:10;99797.00;;;12.90
16956;BMP180;8594;52.052;8.354;2023-12-29T00:19:37;99791.00;;;12.80
16956;BMP180;8594;52.052;8.354;2023-12-29T00:22:04;99788.00;;;13.20
16956;BMP180;8594;52.052;8.354;2023-12-29T00:24:31;99789.00;;;13.00
16956;BMP180;8594;52.052;8.354;2023-12-29T00:26:58;99797.00;;;13.00
16956;BMP180;8594;52.052;8.354;2023-12-29T00:29:26;99795.00;;;12.90
16956;BMP180;8594;52.052;8.354;2023-12-29T00:31:58;99783.00;;;12.80
16956;BMP180;8594;52.052;8.354;2023-12-29T00:34:25;99780.00;;;13.10
16956;BMP180;8594;52.052;8.354;2023-12-29T00:36:52;99792.00;;;13.30
16956;BMP180;8594;52.052;8.354;2023-12-29T00:39:19;99786.00;;;12.90
16956;BMP180;8594;52.052;8.354;2023-12-29T00:41:54;99783.00;;;12.40
16956;BMP180;8594;52.052;8.354;2023-12-29T00:44:22;99805.00;;;12.90
16956;BMP180;8594;52.052;8.354;2023-12-29T00:46:50;99788.00;;;12.40
16956;BMP180;8594;52.052;8.354;2023-12-29T00:49:17;99790.00;;;12.80
16956;BMP180;8594;52.052;8.354;2023-12-29T00:51:44;99783.00;;;12.80
16956;BMP180;8594;52.052;8.354;2023-12-29T00:54:10;99785.00;;;13.20
16956;BMP180;8594;52.052;8.354;2023-12-29T00:56:37;99783.00;;;12.90
16956;BMP180;8594;52.052;8.354;2023-12-29T00:59:04;99786.00;;;13.00
16956;BMP180;8594;52.052;8.354;2023-12-29T01:01:34;99768.00;;;13.10
16956;BMP180;8594;52.052;8.354;2023-12-29T01:04:03;99759.00;;;12.70
16956;BMP180;8594;52.052;8.354;2023-12-29T01:06:29;99767.00;;;12.90
16956;BMP180;8594;52.052;8.354;2023-12-29T01:08:56;99764.00;;;13.10
16956;BMP180;8594;52.052;8.354;2023-12-29T01:11:23;99755.00;;;13.10
16956;BMP180;8594;52.052;8.354;2023-12-29T01:13:50;99772.00;;;12.50
16956;BMP180;8594;52.052;8.354;2023-12-29T01:16:16;99758.00;;;12.80
16956;BMP180;8594;52.052;8.354;2023-12-29T01:18:43;99760.00;;;12.70
16956;BMP180;8594;52.052;8.354;2023-12-29T01:21:11;99762.00;;;13.00
16956;BMP180;8594;52.052;8.354;2023-12-29T01:23:38;99747.00;;;13.00
16956;BMP180;8594;52.052;8.354;2023-12-29T01:26:05;99748.00;;;12.90
16956;BMP180;8594;52.052;8.354;2023-12-29T01:28:31;99741.00;;;13.10
16956;BMP180;8594;52.052;8.354;2023-12-29T01:30:58;99743.00;;;13.10
16956;BMP180;8594;52.052;8.354;2023-12-29T01:33:25;99745.00;;;12.90
16956;BMP180;8594;52.052;8.354;2023-12-29T01:35:52;99730.00;;;13.00
16956;BMP180;8594;52.052;8.354;2023-12-29T01:38:20;99723.00;;;13.00
16956;BMP180;8594;52.052;8.354;2023-12-29T01:40:47;99734.00;;;13.10
16956;BMP180;8594;52.052;8.354;2023-12-29T01:43:13;99726.00;;;13.60
16956;BMP180;8594;52.052;8.354;2023-12-29T01:45:41;99728.00;;;13.40
16956;BMP180;8594;52.052;8.354;2023-12-29T01:48:08;99721.00;;;13.40
16956;BMP180;8594;52.052;8.354;2023-12-29T01:50:35;99721.00;;;13.40
16956;BMP180;8594;52.052;8.354;2023-12-29T01:53:05;99719.00;;;13.40
16956;BMP180;8594;52.052;8.354;2023-12-29T01:55:33;99714.00;;;13.20
16956;BMP180;8594;52.052;8.354;2023-12-29T01:58:01;99717.00;;;13.20
16956;BMP180;8594;52.052;8.354;2023-12-29T02:00:29;99715.00;;;13.60
16956;BMP180;8594;52.052;8.354;2023-12-29T02:02:57;99709.00;;;12.90
16956;BMP180;8594;52.052;8.354;2023-12-29T02:05:26;99718.00;;;13.20
16956;BMP180;8594;52.052;8.354;2023-12-29T02:07:54;99693.00;;;13.30
16956;BMP180;8594;52.052;8.354;2023-12-29T02:10:21;99702.00;;;13.10
16956;BMP180;8594;52.052;8.354;2023-12-29T02:12:50;99701.00;;;13.20
16956;BMP180;8594;52.052;8.354;2023-12-29T02:15:19;99706.00;;;13.60
16956;BMP180;8594;52.052;8.354;2023-12-29T02:17:54;99705.00;;;12.90
16956;BMP180;8594;52.052;8.354;2023-12-29T02:20:23;99687.00;;;13.20
16956;BMP180;8594;52.052;8.354;2023-12-29T02:22:50;99697.00;;;13.00
16956;BMP180;8594;52.052;8.354;2023-12-29T02:25:18;99712.00;;;13.30
16956;BMP180;8594;52.052;8.354;2023-12-29T02:27:51;99690.00;;;12.70
16956;BMP180;8594;52.052;8.354;2023-12-29T02:30:25;99709.00;;;12.90
16956;BMP180;8594;52.052;8.354;2023-12-29T02:32:57;99679.00;;;13.10
16956;BMP180;8594;52.052;8.354;2023-12-29T02:35:28;99693.00;;;13.00
16956;BMP180;8594;52.052;8.354;2023-12-29T02:37:58;99675.00;;;12.20
16956;BMP180;8594;52.052;8.354;2023-12-29T02:40:26;99692.00;;;12.20
16956;BMP180;8594;52.052;8.354;2023-12-29T02:42:53;99706.00;;;12.20
16956;BMP180;8594;52.052;8.354;2023-12-29T02:45:20;99717.00;;;12.20
16956;BMP180;8594;52.052;8.354;2023-12-29T02:47:48;99692.00;;;12.30
16956;BMP180;8594;52.052;8.354;2023-12-29T02:50:16;99692.00;;;12.10
16956;BMP180;8594;52.052;8.354;2023-12-29T02:52:42;99655.00;;;12.20
16956;BMP180;8594;52.052;8.354;2023-12-29T02:55:09;99676.00;;;12.20
16956;BMP180;8594;52.052;8.354;2023-12-29T02:57:37;99670.00;;;11.90
16956;BMP180;8594;52.052;8.354;2023-12-29T03:00:06;99662.00;;;12.10
16956;BMP180;8594;52.052;8.354;2023-12-29T03:02:34;99661.00;;;12.30
16956;BMP180;8594;52.052;8.354;2023-12-29T03:05:01;99683.00;;;12.10
16956;BMP180;8594;52.052;8.354;2023-12-29T03:07:27;99682.00;;;12.20
16956;BMP180;8594;52.052;8.354;2023-12-29T03:09:54;99674.00;;;12.00
16956;BMP180;8594;52.052;8.354;2023-12-29T03:12:21;99683.00;;;12.20
16956;BMP180;8594;52.052;8.354;2023-12-29T03:14:49;99693.00;;;12.50
16956;BMP180;8594;52.052;8.354;2023-12-29T03:17:16;99695.00;;;12.10
16956;BMP180;8594;52.052;8.354;2023-12-29T03:19:43;99674.00;;;12.00
16956;BMP180;8594;52.052;8.354;2023-12-29T03:22:09;99681.00;;;12.10
16956;BMP180;8594;52.052;8.354;2023-12-29T03:24:40;99659.00;;;11.90
16956;BMP180;8594;52.052;8.354;2023-12-29T03:27:07;99681.00;;;12.20
16956;BMP180;8594;52.052;8.354;2023-12-29T03:29:34;99671.00;;;12.20
16956;BMP180;8594;52.052;8.354;2023-12-29T03:32:03;99672.00;;;12.10
16956;BMP180;8594;52.052;8.354;2023-12-29T03:34:29;99685.00;;;12.00
16956;BMP180;8594;52.052;8.354;2023-12-29T03:36:56;99642.00;;;11.90
16956;BMP180;8594;52.052;8.354;2023-12-29T03:39:23;99639.00;;;11.60
16956;BMP180;8594;52.052;8.354;2023-12-29T03:41:50;99648.00;;;11.40
16956;BMP180;8594;52.052;8.354;2023-12-29T03:44:16;99646.00;;;11.70
16956;BMP180;8594;52.052;8.354;2023-12-29T03:46:43;99642.00;;;11.90
16956;BMP180;8594;52.052;8.354;2023-12-29T03:49:12;99649.00;;;12.20
16956;BMP180;8594;52.052;8.354;2023-12-29T03:51:38;99658.00;;;12.10
16956;BMP180;8594;52.052;8.354;2023-12-29T03:54:05;99649.00;;;11.90
16956;BMP180;8594;52.052;8.354;2023-12-29T03:56:32;99655.00;;;12.10
16956;BMP180;8594;52.052;8.354;2023-12-29T03:58:58;99667.00;;;11.90
16956;BMP180;8594;52.052;8.354;2023-12-29T04:01:25;99641.00;;;12.10
16956;BMP180;8594;52.052;8.354;2023-12-29T04:03:53;99649.00;;;11.80
16956;BMP180;8594;52.052;8.354;2023-12-29T04:06:21;99669.00;;;12.10
16956;BMP180;8594;52.052;8.354;2023-12-29T04:08:48;99660.00;;;11.80
16956;BMP180;8594;52.052;8.354;2023-12-29T04:11:14;99647.00;;;11.40
16956;BMP180;8594;52.052;8.354;2023-12-29T04:13:41;99653.00;;;11.40
16956;BMP180;8594;52.052;8.354;2023-12-29T04:16:08;99666.00;;;11.90
16956;BMP180;8594;52.052;8.354;2023-12-29T04:18:34;99661.00;;;11.40
16956;BMP180;8594;52.052;8.354;2023-12-29T04:21:01;99658.00;;;11.80
16956;BMP180;8594;52.052;8.354;2023-12-29T04:23:29;99670.00;;;11.50
16956;BMP180;8594;52.052;8.354;2023-12-29T04:25:56;99667.00;;;11.80
16956;BMP180;8594;52.052;8.354;2023-12-29T04:28:23;99652.00;;;11.50
16956;BMP180;8594;52.052;8.354;2023-12-29T04:30:49;99641.00;;;11.60
16956;BMP180;8594;52.052;8.354;2023-12-29T04:33:16;99639.00;;;12.00
16956;BMP180;8594;52.052;8.354;2023-12-29T04:35:43;99646.00;;;11.70
16956;BMP180;8594;52.052;8.354;2023-12-29T04:38:09;99652.00;;;11.90
16956;BMP180;8594;52.052;8.354;2023-12-29T04:40:37;99647.00;;;11.40
16956;BMP180;8594;52.052;8.354;2023-12-29T04:43:04;99653.00;;;11.60
16956;BMP180;8594;52.052;8.354;2023-12-29T04:45:31;99662.00;;;11.80
16956;BMP180;8594;52.052;8.354;2023-12-29T04:47:58;99647.00;;;11.50
16956;BMP180;8594;52.052;8.354;2023-12-29T04:50:24;99659.00;;;11.90
16956;BMP180;8594;52.052;8.354;2023-12-29T04:52:51;99642.00;;;12.00
16956;BMP180;8594;52.052;8.354;2023-12-29T04:55:18;99655.00;;;11.70
16956;BMP180;8594;52.052;8.354;2023-12-29T04:57:46;99656.00;;;11.80
16956;BMP180;8594;52.052;8.354;2023-12-29T05:00:14;99660.00;;;11.70
16956;BMP180;8594;52.052;8.354;2023-12-29T05:02:41;99636.00;;;11.90
16956;BMP180;8594;52.052;8.354;2023-12-29T05:05:09;99641.00;;;11.90
16956;BMP180;8594;52.052;8.354;2023-12-29T05:07:35;99656.00;;;12.00
16956;BMP180;8594;52.052;8.354;2023-12-29T05:10:03;99646.00;;;11.90
16956;BMP180;8594;52.052;8.354;2023-12-29T05:12:30;99635.00;;;12.10
16956;BMP180;8594;52.052;8.354;2023-12-29T05:14:58;99658.00;;;12.40
16956;BMP180;8594;52.052;8.354;2023-12-29T05:17:24;99652.00;;;11.90
16956;BMP180;8594;52.052;8.354;2023-12-29T05:19:51;99647.00;;;12.00
16956;BMP180;8594;52.052;8.354;2023-12-29T05:22:18;99640.00;;;12.30
16956;BMP180;8594;52.052;8.354;2023-12-29T05:24:44;99637.00;;;12.10
16956;BMP180;8594;52.052;8.354;2023-12-29T05:27:12;99639.00;;;12.20
16956;BMP180;8594;52.052;8.354;2023-12-29T05:29:38;99634.00;;;12.00
16956;BMP180;8594;52.052;8.354;2023-12-29T05:32:07;99643.00;;;12.00
16956;BMP180;8594;52.052;8.354;2023-12-29T05:34:34;99647.00;;;12.10
16956;BMP180;8594;52.052;8.354;2023-12-29T05:37:01;99641.00;;;12.40
16956;BMP180;8594;52.052;8.354;2023-12-29T05:39:27;99641.00;;;12.10
16956;BMP180;8594;52.052;8.354;2023-12-29T05:41:54;99639.00;;;12.00
16956;BMP180;8594;52.052;8.354;2023-12-29T05:44:21;99626.00;;;12.10
16956;BMP180;8594;52.052;8.354;2023-12-29T05:46:48;99642.00;;;12.20
16956;BMP180;8594;52.052;8.354;2023-12-29T05:49:16;99649.00;;;12.10
16956;BMP180;8594;52.052;8.354;2023-12-29T05:51:44;99653.00;;;12.40
16956;BMP180;8594;52.052;8.354;2023-12-29T05:54:11;99645.00;;;12.30
16956;BMP180;8594;52.052;8.354;2023-12-29T05:56:37;99647.00;;;12.50
16956;BMP180;8594;52.052;8.354;2023-12-29T05:59:04;99643.00;;;12.30
16956;BMP180;8594;52.052;8.354;2023-12-29T06:01:31;99663.00;;;12.60
16956;BMP180;8594;52.052;8.354;2023-12-29T06:03:57;99652.00;;;13.00
16956;BMP180;8594;52.052;8.354;2023-12-29T06:06:25;99665.00;;;12.70
16956;BMP180;8594;52.052;8.354;2023-12-29T06:08:52;99657.00;;;12.30
16956;BMP180;8594;52.052;8.354;2023-12-29T06:11:19;99659.00;;;12.40
16956;BMP180;8594;52.052;8.354;2023-12-29T06:13:46;99660.00;;;12.30
16956;BMP180;8594;52.052;8.354;2023-12-29T06:16:18;99665.00;;;12.60
16956;BMP180;8594;52.052;8.354;2023-12-29T06:18:45;99676.00;;;12.50
16956;BMP180;8594;52.052;8.354;2023-12-29T06:21:12;99674.00;;;12.20
16956;BMP180;8594;52.052;8.354;2023-12-29T06:23:40;99672.00;;;12.30
16956;BMP180;8594;52.052;8.354;2023-12-29T06:26:14;99675.00;;;12.60
16956;BMP180;8594;52.052;8.354;2023-12-29T06:28:42;99665.00;;;12.60
16956;BMP180;8594;52.052;8.354;2023-12-29T06:31:08;99674.00;;;12.60
16956;BMP180;8594;52.052;8.354;2023-12-29T06:33:35;99661.00;;;12.60
16956;BMP180;8594;52.052;8.354;2023-12-29T06:36:02;99677.00;;;12.60
16956;BMP180;8594;52.052;8.354;2023-12-29T06:38:29;99665.00;;;12.60
16956;BMP180;8594;52.052;8.354;2023-12-29T06:40:57;99685.00;;;12.60
16956;BMP180;8594;52.052;8.354;2023-12-29T06:43:24;99677.00;;;12.90
16956;BMP180;8594;52.052;8.354;2023-12-29T06:45:50;99680.00;;;12.50
16956;BMP180;8594;52.052;8.354;2023-12-29T06:48:17;99675.00;;;12.70
16956;BMP180;8594;52.052;8.354;2023-12-29T06:50:45;99675.00;;;12.30
16956;BMP180;8594;52.052;8.354;2023-12-29T06:53:11;99686.00;;;12.80
16956;BMP180;8594;52.052;8.354;2023-12-29T06:55:38;99678.00;;;12.30
16956;BMP180;8594;52.052;8.354;2023-12-29T06:58:07;99671.00;;;12.70
16956;BMP180;8594;52.052;8.354;2023-12-29T07:00:34;99672.00;;;12.80
16956;BMP180;8594;52.052;8.354;2023-12-29T07:03:01;99687.00;;;12.60
16956;BMP180;8594;52.052;8.354;2023-12-29T07:05:27;99678.00;;;12.90
16956;BMP180;8594;52.052;8.354;2023-12-29T07:07:54;99701.00;;;12.90
16956;BMP180;8594;52.052;8.354;2023-12-29T07:10:21;99705.00;;;12.50
16956;BMP180;8594;52.052;8.354;2023-12-29T07:12:47;99698.00;;;12.80
16956;BMP180;8594;52.052;8.354;2023-12-29T07:15:16;99692.00;;;12.30
16956;BMP180;8594;52.052;8.354;2023-12-29T07:17:42;99704.00;;;12.50
16956;BMP180;8594;52.052;8.354;2023-12-29T07:20:09;99697.00;;;12.30
16956;BMP180;8594;52.052;8.354;2023-12-29T07:22:36;99706.00;;;12.60
16956;BMP180;8594;52.052;8.354;2023-12-29T07:25:04;99703.00;;;12.60
16956;BMP180;8594;52.052;8.354;2023-12-29T07:27:31;99702.00;;;12.60
16956;BMP180;8594;52.052;8.354;2023-12-29T07:29:57;99703.00;;;12.40
16956;BMP180;8594;52.052;8.354;2023-12-29T07:32:25;99708.00;;;12.80
16956;BMP180;8594;52.052;8.354;2023-12-29T07:34:52;99704.00;;;12.70
16956;BMP180;8594;52.052;8.354;2023-12-29T07:37:19;99691.00;;;12.70
16956;BMP180;8594;52.052;8.354;2023-12-29T07:39:45;99704.00;;;12.70
16956;BMP180;8594;52.052;8.354;2023-12-29T07:42:13;99704.00;;;12.80
16956;BMP180;8594;52.052;8.354;2023-12-29T07:44:42;99709.00;;;12.70
16956;BMP180;8594;52.052;8.354;2023-12-29T07:47:08;99720.00;;;12.90
16956;BMP180;8594;52.052;8.354;2023-12-29T07:49:37;99701.00;;;13.00
16956;BMP180;8594;52.052;8.354;2023-12-29T07:52:04;99712.00;;;12.60
16956;BMP180;8594;52.052;8.354;2023-12-29T07:54:31;99715.00;;;13.10
16956;BMP180;8594;52.052;8.354;2023-12-29T07:56:57;99719.00;;;12.90
16956;BMP180;8594;52.052;8.354;2023-12-29T07:59:24;99706.00;;;12.70
16956;BMP180;8594;52.052;8.354;2023-12-29T08:01:52;99721.00;;;12.90
16956;BMP180;8594;52.052;8.354;2023-12-29T08:04:19;99719.00;;;12.50
16956;BMP180;8594;52.052;8.354;2023-12-29T08:06:47;99702.00;;;12.70
16956;BMP180;8594;52.052;8.354;2023-12-29T08:09:13;99706.00;;;12.80
16956;BMP180;8594;52.052;8.354;2023-12-29T08:11:40;99697.00;;;12.90
16956;BMP180;8594;52.052;8.354;2023-12-29T08:14:08;99687.00;;;12.60
16956;BMP180;8594;52.052;8.354;2023-12-29T08:16:38;99707.00;;;13.20
16956;BMP180;8594;52.052;8.354;2023-12-29T08:19:05;99704.00;;;13.00
16956;BMP180;8594;52.052;8.354;2023-12-29T08:21:33;99700.00;;;13.10
16956;BMP180;8594;52.052;8.354;2023-12-29T08:24:01;99698.00;;;12.70
16956;BMP180;8594;52.052;8.354;2023-12-29T08:26:27;99692.00;;;12.40
16956;BMP180;8594;52.052;8.354;2023-12-29T08:28:54;99680.00;;;12.90
16956;BMP180;8594;52.052;8.354;2023-12-29T08:31:21;99683.00;;;12.30
16956;BMP180;8594;52.052;8.354;2023-12-29T08:33:48;99688.00;;;13.00
16956;BMP180;8594;52.052;8.354;2023-12-29T08:36:19;99697.00;;;12.70
16956;BMP180;8594;52.052;8.354;2023-12-29T08:38:46;99696.00;;;12.40
16956;BMP180;8594;52.052;8.354;2023-12-29T08:41:15;99708.00;;;12.60
16956;BMP180;8594;52.052;8.354;2023-12-29T08:43:42;99706.00;;;12.70
16956;BMP180;8594;52.052;8.354;2023-12-29T08:46:08;99702.00;;;12.30
16956;BMP180;8594;52.052;8.354;2023-12-29T08:48:35;99701.00;;;12.30
16956;BMP180;8594;52.052;8.354;2023-12-29T08:51:02;99695.00;;;11.60
16956;BMP180;8594;52.052;8.354;2023-12-29T08:53:29;99707.00;;;12.20
16956;BMP180;8594;52.052;8.354;2023-12-29T08:55:59;99699.00;;;12.10
16956;BMP180;8594;52.052;8.354;2023-12-29T08:58:27;99688.00;;;11.60
16956;BMP180;8594;52.052;8.354;2023-12-29T09:00:54;99689.00;;;11.80
16956;BMP180;8594;52.052;8.354;2023-12-29T09:03:20;99699.00;;;12.10
16956;BMP180;8594;52.052;8.354;2023-12-29T09:05:47;99691.00;;;11.90
16956;BMP180;8594;52.052;8.354;2023-12-29T09:08:14;99707.00;;;12.20
16956;BMP180;8594;52.052;8.354;2023-12-29T09:10:41;99695.00;;;12.40
16956;BMP180;8594;52.052;8.354;2023-12-29T09:13:08;99694.00;;;12.30
16956;BMP180;8594;52.052;8.354;2023-12-29T09:15:37;99700.00;;;11.90
16956;BMP180;8594;52.052;8.354;2023-12-29T09:18:05;99683.00;;;12.00
16956;BMP180;8594;52.052;8.354;2023-12-29T09:20:32;99692.00;;;11.90
16956;BMP180;8594;52.052;8.354;2023-12-29T09:22:59;99683.00;;;11.90
16956;BMP180;8594;52.052;8.354;2023-12-29T09:25:26;99690.00;;;11.90
16956;BMP180;8594;52.052;8.354;2023-12-29T09:27:53;99689.00;;;12.10
16956;BMP180;8594;52.052;8.354;2023-12-29T09:30:19;99697.00;;;11.90
16956;BMP180;8594;52.052;8.354;2023-12-29T09:32:47;99695.00;;;12.00
16956;BMP180;8594;52.052;8.354;2023-12-29T09:35:14;99689.00;;;11.50
16956;BMP180;8594;52.052;8.354;2023-12-29T09:37:41;99702.00;;;12.00
16956;BMP180;8594;52.052;8.354;2023-12-29T09:40:10;99703.00;;;11.80
16956;BMP180;8594;52.052;8.354;2023-12-29T09:42:40;99709.00;;;11.80
16956;BMP180;8594;52.052;8.354;2023-12-29T09:45:11;99698.00;;;11.70
16956;BMP180;8594;52.052;8.354;2023-12-29T09:47:42;99696.00;;;11.70
16956;BMP180;8594;52.052;8.354;2023-12-29T09:50:12;99695.00;;;11.50
16956;BMP180;8594;52.052;8.354;2023-12-29T09:52:40;99688.00;;;11.70
16956;BMP180;8594;52.052;8.354;2023-12-29T09:55:09;99683.00;;;12.00
16956;BMP180;8594;52.052;8.354;2023-12-29T09:57:37;99689.00;;;11.90
16956;BMP180;8594;52.052;8.354;2023-12-29T10:00:06;99697.00;;;12.10
16956;BMP180;8594;52.052;8.354;2023-12-29T10:02:36;99691.00;;;12.00
16956;BMP180;8594;52.052;8.354;2023-12-29T10:05:04;99697.00;;;12.30
16956;BMP180;8594;52.052;8.354;2023-12-29T10:07:36;99690.00;;;11.70
16956;BMP180;8594;52.052;8.354;2023-12-29T10:10:05;99686.00;;;12.10
16956;BMP180;8594;52.052;8.354;2023-12-29T10:12:34;99699.00;;;11.60
16956;BMP180;8594;52.052;8.354;2023-12-29T10:15:07;99688.00;;;11.90
16956;BMP180;8594;52.052;8.354;2023-12-29T10:17:52;99686.00;;;12.10
16956;BMP180;8594;52.052;8.354;2023-12-29T10:20:45;99697.00;;;12.20
16956;BMP180;8594;52.052;8.354;2023-12-29T10:23:19;99701.00;;;11.70
16956;BMP180;8594;52.052;8.354;2023-12-29T10:25:48;99696.00;;;11.90
16956;BMP180;8594;52.052;8.354;2023-12-29T10:28:16;99699.00;;;11.90
16956;BMP180;8594;52.052;8.354;2023-12-29T10:30:44;99696.00;;;12.20
16956;BMP180;8594;52.052;8.354;2023-12-29T10:33:10;99702.00;;;12.20
16956;BMP180;8594;52.052;8.354;2023-12-29T10:35:57;99696.00;;;12.00
16956;BMP180;8594;52.052;8.354;2023-12-29T10:38:28;99697.00;;;12.60
16956;BMP180;8594;52.052;8.354;2023-12-29T10:41:13;99678.00;;;12.60
16956;BMP180;8594;52.052;8.354;2023-12-29T10:43:42;99671.00;;;12.40
16956;BMP180;8594;52.052;8.354;2023-12-29T10:46:11;99679.00;;;12.10
16956;BMP180;8594;52.052;8.354;2023-12-29T10:48:38;99676.00;;;12.40
16956;BMP180;8594;52.052;8.354;2023-12-29T10:51:06;99673.00;;;12.70
16956;BMP180;8594;52.052;8.354;2023-12-29T10:53:36;99667.00;;;12.40
16956;BMP180;8594;52.052;8.354;2023-12-29T10:56:04;99661.00;;;12.70
16956;BMP180;8594;52.052;8.354;2023-12-29T10:58:31;99662.00;;;12.50
16956;BMP180;8594;52.052;8.354;2023-12-29T11:01:14;99663.00;;;12.40
16956;BMP180;8594;52.052;8.354;2023-12-29T11:03:57;99657.00;;;12.80
16956;BMP180;8594;52.052;8.354;2023-12-29T11:06:24;99656.00;;;13.10
16956;BMP180;8594;52.052;8.354;2023-12-29T11:08:52;99666.00;;;12.80
16956;BMP180;8594;52.052;8.354;2023-12-29T11:11:19;99680.00;;;12.70
16956;BMP180;8594;52.052;8.354;2023-12-29T11:13:47;99669.00;;;13.00
16956;BMP180;8594;52.052;8.354;2023-12-29T11:16:15;99669.00;;;12.70
16956;BMP180;8594;52.052;8.354;2023-12-29T11:18:47;99686.00;;;12.50
16956;BMP180;8594;52.052;8.354;2023-12-29T11:21:16;99677.00;;;12.70
16956;BMP180;8594;52.052;8.354;2023-12-29T11:23:43;99675.00;;;12.60
16956;BMP180;8594;52.052;8.354;2023-12-29T11:26:12;99691.00;;;12.50
16956;BMP180;8594;52.052;8.354;2023-12-29T11:28:39;99683.00;;;12.70
16956;BMP180;8594;52.052;8.354;2023-12-29T11:31:07;99692.00;;;12.60
16956;BMP180;8594;52.052;8.354;2023-12-29T11:33:39;99683.00;;;12.50
16956;BMP180;8594;52.052;8.354;2023-12-29T11:36:12;99684.00;;;12.70
16956;BMP180;8594;52.052;8.354;2023-12-29T11:38:58;99692.00;;;12.30
16956;BMP180;8594;52.052;8.354;2023-12-29T11:41:40;99685.00;;;12.20
16956;BMP180;8594;52.052;8.354;2023-12-29T11:44:08;99683.00;;;12.20
16956;BMP180;8594;52.052;8.354;2023-12-29T11:46:37;99686.00;;;12.50
16956;BMP180;8594;52.052;8.354;2023-12-29T11:49:05;99673.00;;;12.60
16956;BMP180;8594;52.052;8.354;2023-12-29T11:51:35;99680.00;;;12.50
16956;BMP180;8594;52.052;8.354;2023-12-29T11:54:03;99675.00;;;12.50
16956;BMP180;8594;52.052;8.354;2023-12-29T11:56:37;99671.00;;;12.70
16956;BMP180;8594;52.052;8.354;2023-12-29T11:59:16;99672.00;;;12.90
16956;BMP180;8594;52.052;8.354;2023-12-29T12:01:44;99665.00;;;13.10
16956;BMP180;8594;52.052;8.354;2023-12-29T12:04:39;99666.00;;;12.80
16956;BMP180;8594;52.052;8.354;2023-12-29T12:07:16;99663.00;;;12.70
16956;BMP180;8594;52.052;8.354;2023-12-29T12:09:43;99660.00;;;12.70
16956;BMP180;8594;52.052;8.354;2023-12-29T12:12:39;99663.00;;;12.80
16956;BMP180;8594;52.052;8.354;2023-12-29T12:15:31;99663.00;;;12.80
16956;BMP180;8594;52.052;8.354;2023-12-29T12:18:00;99655.00;;;12.90
16956;BMP180;8594;52.052;8.354;2023-12-29T12:20:30;99682.00;;;12.80
16956;BMP180;8594;52.052;8.354;2023-12-29T12:22:59;99682.00;;;12.50
16956;BMP180;8594;52.052;8.354;2023-12-29T12:25:27;99675.00;;;12.30
16956;BMP180;8594;52.052;8.354;2023-12-29T12:27:56;99666.00;;;12.30
16956;BMP180;8594;52.052;8.354;2023-12-29T12:30:23;99672.00;;;12.80
16956;BMP180;8594;52.052;8.354;2023-12-29T12:32:57;99677.00;;;12.80
16956;BMP180;8594;52.052;8.354;2023-12-29T12:35:24;99668.00;;;12.90
16956;BMP180;8594;52.052;8.354;2023-12-29T12:38:08;99676.00;;;12.70
16956;BMP180;8594;52.052;8.354;2023-12-29T12:40:35;99667.00;;;12.60
16956;BMP180;8594;52.052;8.354;2023-12-29T12:43:03;99670.00;;;12.80
16956;BMP180;8594;52.052;8.354;2023-12-29T12:45:34;99667.00;;;12.90
16956;BMP180;8594;52.052;8.354;2023-12-29T12:48:09;99678.00;;;12.80
16956;BMP180;8594;52.052;8.354;2023-12-29T12:50:43;99673.00;;;13.10
16956;BMP180;8594;52.052;8.354;2023-12-29T12:53:11;99669.00;;;13.20
16956;BMP180;8594;52.052;8.354;2023-12-29T12:55:47;99663.00;;;13.40
16956;BMP180;8594;52.052;8.354;2023-12-29T12:58:15;99657.00;;;13.50
16956;BMP180;8594;52.052;8.354;2023-12-29T13:00:42;99659.00;;;13.60
16956;BMP180;8594;52.052;8.354;2023-12-29T13:03:09;99661.00;;;13.50
16956;BMP180;8594;52.052;8.354;2023-12-29T13:05:36;99646.00;;;13.40
16956;BMP180;8594;52.052;8.354;2023-12-29T13:08:05;99647.00;;;13.80
16956;BMP180;8594;52.052;8.354;2023-12-29T13:10:32;99647.00;;;13.50
16956;BMP180;8594;52.052;8.354;2023-12-29T13:12:59;99647.00;;;13.50
16956;BMP180;8594;52.052;8.354;2023-12-29T13:15:27;99652.00;;;14.00
16956;BMP180;8594;52.052;8.354;2023-12-29T13:17:55;99652.00;;;14.20
16956;BMP180;8594;52.052;8.354;2023-12-29T13:20:22;99656.00;;;13.70
16956;BMP180;8594;52.052;8.354;2023-12-29T13:22:50;99658.00;;;13.80
16956;BMP180;8594;52.052;8.354;2023-12-29T13:25:20;99647.00;;;13.60
16956;BMP180;8594;52.052;8.354;2023-12-29T13:27:52;99649.00;;;13.80
16956;BMP180;8594;52.052;8.354;2023-12-29T13:30:20;99649.00;;;13.90
16956;BMP180;8594;52.052;8.354;2023-12-29T13:32:50;99644.00;;;13.30
16956;BMP180;8594;52.052;8.354;2023-12-29T13:35:23;99648.00;;;13.50
16956;BMP180;8594;52.052;8.354;2023-12-29T13:38:03;99644.00;;;13.10
16956;BMP180;8594;52.052;8.354;2023-12-29T13:40:38;99644.00;;;13.20
16956;BMP180;8594;52.052;8.354;2023-12-29T13:43:08;99647.00;;;13.60
16956;BMP180;8594;52.052;8.354;2023-12-29T13:45:38;99639.00;;;13.40
16956;BMP180;8594;52.052;8.354;2023-12-29T13:48:09;99643.00;;;13.50
16956;BMP180;8594;52.052;8.354;2023-12-29T13:50:37;99647.00;;;13.90
16956;BMP180;8594;52.052;8.354;2023-12-29T13:53:06;99639.00;;;14.10
16956;BMP180;8594;52.052;8.354;2023-12-29T13:55:32;99628.00;;;13.70
16956;BMP180;8594;52.052;8.354;2023-12-29T13:57:59;99627.00;;;13.50
16956;BMP180;8594;52.052;8.354;2023-12-29T14:00:27;99626.00;;;13.30
16956;BMP180;8594;52.052;8.354;2023-12-29T14:03:02;99635.00;;;13.50
16956;BMP180;8594;52.052;8.354;2023-12-29T14:05:39;99640.00;;;13.30
16956;BMP180;8594;52.052;8.354;2023-12-29T14:08:22;99640.00;;;13.30
16956;BMP180;8594;52.052;8.354;2023-12-29T14:10:49;99641.00;;;13.60
16956;BMP180;8594;52.052;8.354;2023-12-29T14:13:17;99647.00;;;13.50
16956;BMP180;8594;52.052;8.354;2023-12-29T14:15:45;99644.00;;;13.40
16956;BMP180;8594;52.052;8.354;2023-12-29T14:18:47;99647.00;;;13.30
16956;BMP180;8594;52.052;8.354;2023-12-29T14:21:24;99633.00;;;13.20
16956;BMP180;8594;52.052;8.354;2023-12-29T14:24:09;99646.00;;;13.70
16956;BMP180;8594;52.052;8.354;2023-12-29T14:26:36;99628.00;;;13.40
16956;BMP180;8594;52.052;8.354;2023-12-29T14:29:04;99636.00;;;13.60